createdAt,value
2023-04-16T00:00:30.821Z,6.80
2023-04-16T00:05:32.503Z,6.80
2023-04-16T00:10:35.637Z,6.81
2023-04-16T00:15:37.219Z,6.66
2023-04-16T00:20:38.932Z,6.77
2023-04-16T00:25:41.935Z,6.71
2023-04-16T00:30:43.594Z,6.73
2023-04-16T00:35:45.524Z,6.73
2023-04-16T00:40:48.530Z,6.67
2023-04-16T00:45:50.693Z,6.67
2023-04-16T00:50:52.392Z,6.55
2023-04-16T00:55:55.618Z,6.70
2023-04-16T01:00:57.191Z,6.69
2023-04-16T01:05:58.771Z,6.60
2023-04-16T01:11:01.989Z,6.73
2023-04-16T01:16:03.930Z,6.64
2023-04-16T01:21:07.328Z,6.67
2023-04-16T01:26:08.854Z,6.56
2023-04-16T01:31:10.393Z,6.51
2023-04-16T01:36:13.372Z,6.27
2023-04-16T01:41:20.201Z,6.41
2023-04-16T01:46:27.563Z,6.49
2023-04-16T01:51:30.494Z,6.38
2023-04-16T01:56:32.022Z,6.57
2023-04-16T02:01:33.567Z,6.43
2023-04-16T02:06:36.504Z,6.40
2023-04-16T02:11:38.129Z,6.04
2023-04-16T02:16:39.695Z,5.97
2023-04-16T02:21:42.620Z,5.94
2023-04-16T02:26:44.403Z,5.77
2023-04-16T02:31:49.016Z,5.82
2023-04-16T02:36:52.045Z,5.63
2023-04-16T02:41:53.718Z,5.67
2023-04-16T02:47:07.515Z,5.59
2023-04-16T02:52:10.392Z,5.79
2023-04-16T02:57:12.016Z,5.72
2023-04-16T03:02:13.613Z,5.76
2023-04-16T03:07:16.522Z,5.67
2023-04-16T03:12:18.102Z,5.74
2023-04-16T03:17:19.733Z,5.70
2023-04-16T03:22:22.790Z,5.76
2023-04-16T03:27:29.644Z,5.68
2023-04-16T03:32:31.244Z,5.82
2023-04-16T03:37:34.363Z,5.72
2023-04-16T03:42:35.906Z,5.68
2023-04-16T03:47:39.472Z,5.72
2023-04-16T03:52:42.434Z,5.60
2023-04-16T03:57:44.045Z,5.63
2023-04-16T04:02:45.818Z,5.74
2023-04-16T04:07:49.114Z,5.64
2023-04-16T04:12:50.808Z,5.65
2023-04-16T04:17:52.497Z,5.64
2023-04-16T04:22:55.418Z,5.59
2023-04-16T04:28:06.097Z,5.62
2023-04-16T04:33:07.652Z,5.76
2023-04-16T04:38:10.540Z,5.63
2023-04-16T04:43:12.191Z,5.72
2023-04-16T04:48:13.723Z,5.76
2023-04-16T04:53:16.707Z,5.71
2023-04-16T04:58:18.269Z,5.62
2023-04-16T05:03:21.588Z,5.70
2023-04-16T05:08:24.701Z,5.66
2023-04-16T05:13:26.255Z,5.68
2023-04-16T05:18:27.859Z,5.68
2023-04-16T05:23:33.569Z,5.72
2023-04-16T05:28:35.173Z,5.65
2023-04-16T05:33:36.758Z,5.68
2023-04-16T05:38:39.763Z,5.74
2023-04-16T05:43:41.369Z,5.55
2023-04-16T05:48:42.870Z,5.79
2023-04-16T05:53:45.789Z,5.79
2023-04-16T05:58:47.334Z,5.84
2023-04-16T06:03:49.447Z,5.74
2023-04-16T06:08:52.453Z,5.88
2023-04-16T06:13:54.060Z,6.01
2023-04-16T06:18:55.639Z,5.72
2023-04-16T06:23:58.558Z,5.92
2023-04-16T06:29:00.439Z,5.87
2023-04-16T06:34:01.980Z,5.99
2023-04-16T06:39:04.966Z,5.68
2023-04-16T06:44:06.555Z,6.11
2023-04-16T06:49:08.483Z,6.17
2023-04-16T06:54:11.601Z,5.82
2023-04-16T06:59:13.142Z,6.00
2023-04-16T07:04:14.797Z,6.42
2023-04-16T07:09:17.868Z,6.35
2023-04-16T07:14:19.624Z,6.35
2023-04-16T07:19:21.130Z,6.31
2023-04-16T07:24:24.010Z,6.24
2023-04-16T07:29:25.609Z,6.52
2023-04-16T07:34:27.176Z,6.48
2023-04-16T07:39:30.099Z,6.25
2023-04-16T07:44:31.674Z,6.42
2023-04-16T07:49:33.577Z,6.36
2023-04-16T07:54:36.454Z,6.24
2023-04-16T07:59:38.019Z,6.20
2023-04-16T08:04:39.854Z,6.25
2023-04-16T08:09:49.000Z,6.38
2023-04-16T08:14:50.610Z,6.32
2023-04-16T08:19:52.193Z,6.63
2023-04-16T08:24:55.105Z,6.52
2023-04-16T08:29:56.661Z,6.48
2023-04-16T08:34:58.274Z,6.51
2023-04-16T08:40:01.176Z,6.42
2023-04-16T08:45:07.490Z,6.59
2023-04-16T08:50:11.461Z,6.67
2023-04-16T08:55:16.221Z,6.79
2023-04-16T09:00:19.131Z,6.86
2023-04-16T09:05:22.020Z,7.14
2023-04-16T09:10:26.217Z,6.62
2023-04-16T09:15:27.846Z,6.78
2023-04-16T09:20:29.477Z,6.70
2023-04-16T09:25:34.770Z,6.49
2023-04-16T09:30:37.113Z,6.53
2023-04-16T09:35:45.609Z,6.98
2023-04-16T09:40:48.553Z,6.74
2023-04-16T09:45:51.007Z,6.65
2023-04-16T09:50:52.573Z,6.86
2023-04-16T09:55:57.736Z,6.74
2023-04-16T10:01:01.612Z,6.56
2023-04-16T10:06:08.226Z,7.08
2023-04-16T10:11:11.219Z,6.68
2023-04-16T10:16:13.016Z,7.00
2023-04-16T10:21:14.672Z,6.82
2023-04-16T10:26:18.089Z,7.02
2023-04-16T10:31:20.115Z,6.84
2023-04-16T10:36:25.026Z,7.15
2023-04-16T10:41:28.171Z,7.11
2023-04-16T10:46:31.804Z,6.98
2023-04-16T10:51:34.990Z,7.02
2023-04-16T10:56:38.358Z,6.99
2023-04-16T11:01:42.947Z,7.43
2023-04-16T11:07:00.507Z,7.16
2023-04-16T11:12:07.679Z,6.69
2023-04-16T11:17:09.884Z,6.77
2023-04-16T11:22:13.554Z,6.75
2023-04-16T11:27:16.456Z,6.53
2023-04-16T11:32:21.280Z,6.59
2023-04-16T11:37:31.992Z,6.46
2023-04-16T11:42:35.418Z,6.66
2023-04-16T11:47:43.731Z,6.57
2023-04-16T11:52:45.408Z,6.89
2023-04-16T11:57:48.854Z,6.58
2023-04-16T12:02:51.719Z,6.57
2023-04-16T12:07:53.412Z,6.65
2023-04-16T12:13:09.934Z,6.38
2023-04-16T12:18:11.511Z,6.55
2023-04-16T12:23:23.106Z,6.46
2023-04-16T12:28:30.520Z,6.45
2023-04-16T12:33:32.225Z,6.72
2023-04-16T12:38:33.847Z,6.62
2023-04-16T12:43:37.646Z,6.89
2023-04-16T12:48:39.183Z,6.84
2023-04-16T12:53:40.729Z,6.93
2023-04-16T12:58:43.563Z,6.90
2023-04-16T13:03:45.357Z,7.33
2023-04-16T13:08:47.101Z,6.98
2023-04-16T13:13:49.975Z,6.69
2023-04-16T13:18:51.535Z,6.92
2023-04-16T13:23:53.178Z,7.03
2023-04-16T13:28:56.092Z,6.83
2023-04-16T13:33:57.778Z,7.04
2023-04-16T13:38:59.397Z,7.06
2023-04-16T13:44:02.317Z,6.92
2023-04-16T13:49:03.915Z,6.59
2023-04-16T13:54:05.627Z,6.92
2023-04-16T13:59:08.782Z,7.03
2023-04-16T14:04:10.517Z,7.00
2023-04-16T14:09:12.263Z,6.79
2023-04-16T14:14:15.378Z,6.68
2023-04-16T14:19:16.961Z,7.11
2023-04-16T14:24:18.488Z,7.12
2023-04-16T14:29:21.350Z,6.94
2023-04-16T14:34:22.852Z,7.12
2023-04-16T14:39:24.521Z,6.89
2023-04-16T14:44:27.382Z,7.08
2023-04-16T14:49:28.942Z,6.99
2023-04-16T14:54:31.528Z,6.93
2023-04-16T14:59:34.470Z,7.08
2023-04-16T15:04:36.138Z,6.73
2023-04-16T15:09:37.683Z,6.83
2023-04-16T15:14:40.581Z,7.07
2023-04-16T15:19:42.159Z,7.17
2023-04-16T15:24:43.709Z,7.03
2023-04-16T15:29:46.620Z,6.92
2023-04-16T15:34:48.143Z,7.13
2023-04-16T15:39:49.716Z,7.17
2023-04-16T15:44:52.648Z,6.96
2023-04-16T15:49:54.212Z,7.17
2023-04-16T15:54:56.080Z,7.05
2023-04-16T16:00:06.991Z,6.75
2023-04-16T16:05:10.067Z,6.96
2023-04-16T16:10:12.334Z,7.30
2023-04-16T16:15:15.274Z,6.94
2023-04-16T16:20:16.857Z,6.95
2023-04-16T16:25:18.462Z,6.70
2023-04-16T16:30:21.432Z,6.70
2023-04-16T16:35:23.018Z,6.82
2023-04-16T16:40:24.837Z,6.81
2023-04-16T16:45:27.700Z,6.48
2023-04-16T16:50:31.133Z,7.01
2023-04-16T16:55:32.774Z,6.71
2023-04-16T17:00:35.744Z,6.81
2023-04-16T17:05:37.347Z,6.97
2023-04-16T17:10:38.902Z,6.57
2023-04-16T17:15:41.999Z,6.88
2023-04-16T17:20:43.572Z,6.74
2023-04-16T17:25:45.187Z,6.68
2023-04-16T17:30:51.426Z,6.93
2023-04-16T17:35:52.993Z,6.98
2023-04-16T17:40:54.524Z,6.82
2023-04-16T17:45:57.440Z,6.82
2023-04-16T17:50:59.014Z,6.68
2023-04-16T17:56:00.564Z,6.89
2023-04-16T18:01:03.680Z,6.69
2023-04-16T18:06:05.600Z,6.77
2023-04-16T18:11:07.376Z,6.90
2023-04-16T18:16:15.070Z,6.52
2023-04-16T18:21:16.468Z,7.03
2023-04-16T18:26:20.946Z,7.02
2023-04-16T18:31:25.627Z,6.81
2023-04-16T18:36:27.254Z,6.85
2023-04-16T18:41:29.683Z,6.49
2023-04-16T18:46:32.784Z,6.91
2023-04-16T18:51:34.453Z,6.83
2023-04-16T18:56:36.016Z,6.98
2023-04-16T19:01:38.963Z,6.77
2023-04-16T19:06:40.555Z,6.71
2023-04-16T19:11:42.415Z,6.83
2023-04-16T19:16:45.425Z,6.95
2023-04-16T19:21:47.030Z,6.77
2023-04-16T19:26:48.593Z,6.92
2023-04-16T19:31:51.508Z,6.77
2023-04-16T19:36:53.139Z,6.65
2023-04-16T19:41:54.702Z,6.60
2023-04-16T19:46:57.667Z,6.37
2023-04-16T19:51:59.232Z,6.50
2023-04-16T19:57:00.831Z,6.74
2023-04-16T20:02:03.841Z,6.47
2023-04-16T20:07:05.392Z,6.51
2023-04-16T20:12:07.161Z,6.59
2023-04-16T20:17:10.318Z,6.61
2023-04-16T20:22:11.979Z,6.28
2023-04-16T20:27:13.699Z,6.30
2023-04-16T20:32:16.692Z,6.44
2023-04-16T20:37:18.266Z,6.50
2023-04-16T20:42:19.818Z,6.26
2023-04-16T20:47:22.737Z,6.34
2023-04-16T20:52:24.295Z,6.36
2023-04-16T20:57:25.897Z,6.42
2023-04-16T21:02:28.992Z,6.31
2023-04-16T21:07:30.822Z,6.40
2023-04-16T21:12:32.385Z,6.33
2023-04-16T21:17:35.311Z,6.24
2023-04-16T21:22:36.905Z,6.34
2023-04-16T21:27:38.456Z,6.24
2023-04-16T21:32:41.906Z,6.33
2023-04-16T21:37:43.535Z,6.33
2023-04-16T21:42:45.110Z,6.31
2023-04-16T21:47:48.159Z,6.36
2023-04-16T21:52:49.803Z,6.39
2023-04-16T21:57:51.753Z,6.54
2023-04-16T22:02:54.883Z,6.41
2023-04-16T22:07:56.580Z,6.48
2023-04-16T22:12:58.103Z,6.31
2023-04-16T22:18:01.037Z,6.39
2023-04-16T22:23:02.626Z,6.41
2023-04-16T22:28:04.191Z,6.41
2023-04-16T22:33:07.147Z,6.51
2023-04-16T22:38:08.757Z,6.59
2023-04-16T22:43:10.307Z,6.29
2023-04-16T22:48:13.237Z,6.22
2023-04-16T22:53:15.915Z,6.24
2023-04-16T22:58:17.452Z,6.18
2023-04-16T23:03:20.414Z,6.14
2023-04-16T23:08:22.020Z,6.15
2023-04-16T23:13:23.708Z,6.11
2023-04-16T23:18:26.635Z,6.10
2023-04-16T23:23:28.237Z,6.07
2023-04-16T23:28:29.809Z,6.07
2023-04-16T23:33:32.709Z,6.05
2023-04-16T23:38:34.290Z,6.06
2023-04-16T23:43:35.864Z,6.12
2023-04-16T23:48:38.744Z,6.21
2023-04-16T23:53:40.300Z,6.19
2023-04-16T23:58:41.878Z,6.24
